Latest Weather Observations for McCluer Island

IDD60801

Issued at 9:31 pm CST Monday 6 February 2023 (issued every 10 minutes, with the page automatically refreshed every 10 minutes)

About weather observations | Map of weather stations | Latest weather observations for NT | Other Formats
Station Details ID: 014274 Name: MCCLUER ISLAND Lat: -11.05 Lon: 132.98 Height: 1.4 m
Data from the previous 72 hours. | See also: Recent months at McCluer Island
Date/Time
CST
Temp
°C
App
Temp
°C
Dew
Point
°C
Rel
Hum
%
Delta-T
°C
Wind Press
QNH
hPa
Press
MSL
hPa
Rain since
9am
mm
Dir  Spd
km/h
Gust
km/h
Spd
kts
Gust
kts
06/09:30pm 29.1 31.7 25.5 81 2.5 WNW 22 26 12 14 1006.7 1006.7 0.0
06/09:00pm 29.1 31.4 25.7 82 2.4 WNW 24 28 13 15 1006.5 1006.5 0.0
06/08:30pm 28.9 31.0 25.9 84 2.1 WNW 26 28 14 15 1006.3 1006.3 0.0
06/08:00pm 29.1 31.6 25.9 83 2.3 WNW 24 28 13 15 1006.0 1006.0 0.0
06/07:30pm 29.2 32.1 25.4 80 2.7 WNW 20 22 11 12 1005.9 1005.9 0.0
06/07:00pm 29.3 32.2 25.1 78 2.9 WNW 19 20 10 11 1005.7 1005.7 0.0
06/06:30pm 29.3 32.2 25.1 78 3.0 WNW 19 22 10 12 1005.4 1005.4 0.0
06/06:00pm 29.4 32.1 24.7 76 3.3 WNW 19 22 10 12 1005.0 1005.0 0.0
06/05:30pm 29.7 33.1 24.6 74 3.6 WNW 15 17 8 9 1005.0 1005.0 0.0
06/05:00pm 29.8 32.7 24.4 73 3.8 NW 17 20 9 11 1004.9 1004.9 0.0
06/04:30pm 29.9 33.6 25.2 76 3.3 NW 15 17 8 9 1004.8 1004.8 0.0
06/04:00pm 30.8 35.2 25.6 74 3.7 WNW 13 15 7 8 1004.9 1004.9 0.0
06/03:30pm 30.3 34.0 25.1 73 3.7 W 15 19 8 10 1005.2 1005.2 0.0
06/03:00pm 30.7 35.3 25.3 73 3.8 W 11 15 6 8 1005.3 1005.3 0.0
06/02:30pm 30.8 34.4 24.4 68 4.5 WSW 13 15 7 8 1005.3 1005.3 0.0
06/02:00pm 30.5 33.6 24.2 69 4.4 WSW 15 17 8 9 1005.6 1005.6 0.0
06/01:30pm 30.5 33.9 24.6 70 4.1 WSW 15 17 8 9 1006.0 1006.0 0.0
06/01:00pm 29.9 33.3 24.1 71 4.0 WSW 13 15 7 8 1006.4 1006.4 0.0
06/12:30pm 29.9 33.5 24.3 72 3.9 WSW 13 15 7 8 1006.7 1006.7 0.0
06/12:00pm 30.2 33.6 24.1 70 4.2 SW 13 17 7 9 1007.1 1007.1 0.0
06/11:30am 30.0 34.5 24.6 73 3.8 SW 9 13 5 7 1007.5 1007.5 0.0
06/11:00am 29.4 32.9 23.6 71 4.0 SSW 11 15 6 8 1007.9 1007.9 0.0
06/10:30am 30.2 33.3 24.1 70 4.2 SSW 15 17 8 9 1008.1 1008.1 0.0
06/10:00am 29.4 33.0 24.3 74 3.5 SSW 13 17 7 9 1008.3 1008.3 0.0
06/09:30am 29.3 32.4 23.5 71 4.0 S 13 17 7 9 1008.2 1008.2 0.0
06/09:00am 28.5 31.8 23.9 76 3.2 SSW 13 17 7 9 1007.9 1007.9 8.0
06/08:30am 28.0 31.8 24.0 79 2.8 S 11 15 6 8 1007.9 1007.9 8.0
06/08:00am 28.1 31.9 24.7 82 2.4 SSW 13 15 7 8 1007.5 1007.5 8.0
06/07:30am 28.1 30.8 24.7 82 2.4 SSW 19 22 10 12 1006.9 1006.9 8.0
06/07:00am 28.0 30.2 24.0 79 2.8 SW 19 24 10 13 1006.4 1006.4 8.0
06/06:30am 28.1 30.4 24.1 79 2.8 SW 19 20 10 11 1006.0 1006.0 8.0
06/06:00am 27.8 29.9 23.8 79 2.8 SW 19 22 10 12 1005.6 1005.6 8.0
06/05:30am 27.9 30.1 23.9 79 2.8 SW 19 22 10 12 1005.5 1005.5 8.0
06/05:00am 27.7 29.9 23.9 80 2.6 SW 19 22 10 12 1005.2 1005.2 8.0
06/04:30am 27.8 29.8 24.0 80 2.6 SW 20 24 11 13 1005.3 1005.3 8.0
06/04:00am 27.8 30.2 23.6 78 2.9 SW 17 20 9 11 1005.3 1005.3 8.0
06/03:30am 27.9 30.6 24.1 80 2.6 SW 17 20 9 11 1005.1 1005.1 8.0
06/03:00am 28.2 31.4 24.4 80 2.6 SSW 15 17 8 9 1005.1 1005.1 8.0
06/02:30am 27.8 31.2 24.0 80 2.6 SSW 13 17 7 9 1005.2 1005.2 8.0
06/02:00am 27.4 31.2 24.1 82 2.3 SSW 11 15 6 8 1005.4 1005.4 8.0
06/01:30am 26.6 31.3 23.9 85 1.9 NE 6 7 3 4 1005.6 1005.6 8.0
06/01:00am 26.8 31.3 23.7 83 2.1 NE 6 9 3 5 1005.9 1005.9 8.0
06/12:30am 26.9 32.7 24.0 84 2.0 CALM 0 6 0 3 1006.1 1006.1 8.0
06/12:00am 27.2 33.1 24.1 83 2.1 CALM 0 0 0 0 1006.3 1006.3 8.0
 
Date/Time
CST
Temp
°C
App
Temp
°C
Dew
Point
°C
Rel
Hum
%
Delta-T
°C
Wind Press
QNH
hPa
Press
MSL
hPa
Rain since
9am
mm
Dir  Spd
km/h
Gust
km/h
Spd
kts
Gust
kts
05/11:30pm 27.0 31.6 24.1 84 2.0 NE 7 9 4 5 1006.6 1006.6 8.0
05/11:00pm 26.7 32.2 23.4 82 2.3 CALM 0 0 0 0 1006.6 1006.6 8.0
05/10:30pm 27.6 32.3 24.0 81 2.5 NE 6 7 3 4 1006.6 1006.6 8.0
05/10:00pm 27.8 32.6 24.4 82 2.4 NE 7 9 4 5 1006.3 1006.3 8.0
05/09:30pm 27.7 31.9 24.1 81 2.5 NE 9 11 5 6 1006.0 1006.0 8.0
05/09:00pm 28.0 31.0 24.0 79 2.8 E 15 19 8 10 1005.9 1005.9 8.0
05/08:30pm 28.1 30.5 23.0 74 3.5 E 15 19 8 10 1005.6 1005.6 8.0
05/08:00pm 28.1 29.6 23.0 74 3.5 E 20 24 11 13 1005.2 1005.2 8.0
05/07:30pm 28.1 29.6 23.0 74 3.5 E 20 24 11 13 1005.0 1005.0 8.0
05/07:00pm 27.9 29.7 23.5 77 3.0 E 20 26 11 14 1004.8 1004.8 8.0
05/06:30pm 27.8 28.4 23.4 77 3.0 E 26 30 14 16 1004.4 1004.4 8.0
05/06:00pm 27.7 28.5 23.1 76 3.1 E 24 30 13 16 1004.3 1004.3 8.0
05/05:30pm 27.6 28.9 23.4 78 2.9 E 22 26 12 14 1003.9 1003.9 8.0
05/05:00pm 27.2 28.0 23.2 79 2.7 E 24 28 13 15 1003.5 1003.5 8.0
05/04:30pm 26.9 28.3 23.6 82 2.3 E 22 26 12 14 1003.5 1003.5 8.0
05/04:00pm 27.3 27.8 23.3 79 2.7 ESE 26 30 14 16 1003.5 1003.5 8.0
05/03:30pm 27.3 26.2 22.9 77 3.0 ESE 33 41 18 22 1003.6 1003.6 8.0
05/03:00pm 27.0 24.0 22.8 78 2.9 E 43 50 23 27 1003.6 1003.6 8.0
05/02:30pm 27.1 23.0 21.8 73 3.6 E 46 54 25 29 1003.9 1003.9 8.0
05/02:00pm 27.1 24.1 23.1 79 2.7 E 44 54 24 29 1004.0 1004.0 8.0
05/01:30pm 26.1 23.7 23.2 84 2.0 ENE 41 46 22 25 1004.1 1004.1 8.0
05/01:00pm 26.5 25.4 23.4 83 2.1 ENE 35 41 19 22 1004.6 1004.6 8.0
05/12:30pm 26.4 25.0 24.2 88 1.5 E 39 44 21 24 1004.8 1004.8 8.0
05/12:00pm 26.3 26.0 24.2 88 1.5 E 33 39 18 21 1005.0 1005.0 8.0
05/11:30am 25.9 25.7 24.3 91 1.1 E 33 39 18 21 1005.5 1005.5 8.0
05/11:00am 25.2 27.2 24.0 93 0.8 SE 20 28 11 15 1005.9 1005.9 8.0
05/10:30am 25.7 28.9 24.3 92 1.0 ESE 15 22 8 12 1006.2 1006.2 5.2
05/10:00am 25.8 28.2 24.6 93 0.8 E 20 24 11 13 1006.3 1006.3 3.2
05/09:30am 25.7 27.0 24.7 94 0.7 E 26 32 14 17 1006.3 1006.3 2.4
05/09:00am 25.9 28.4 24.5 92 1.0 E 19 22 10 12 1006.4 1006.4 25.6
05/08:30am 26.3 28.3 25.1 93 0.8 E 24 28 13 15 1006.0 1006.0 23.0
05/08:00am 26.3 28.0 24.7 91 1.1 E 24 26 13 14 1005.7 1005.7 20.6
05/07:30am 26.2 26.8 24.2 89 1.4 E 28 32 15 17 1005.3 1005.3 16.0
05/07:00am 25.0 27.0 23.6 92 1.0 SE 19 26 10 14 1005.2 1005.2 16.0
05/06:30am 25.6 25.9 24.2 92 1.0 E 30 33 16 18 1005.0 1005.0 15.8
05/06:00am 25.9 26.9 24.7 93 0.8 ESE 28 32 15 17 1004.9 1004.9 14.2
05/05:30am 24.9 28.1 23.7 93 0.8 ESE 13 17 7 9 1004.7 1004.7 13.2
05/05:00am 24.8 27.5 23.4 92 1.0 ESE 15 17 8 9 1004.5 1004.5 11.6
05/04:30am 25.3 28.7 24.1 93 0.8 ESE 13 15 7 8 1004.4 1004.4 10.4
05/04:00am 25.4 29.4 23.8 91 1.1 ENE 9 13 5 7 1004.4 1004.4 9.4
05/03:30am 25.9 30.3 24.5 92 1.0 E 9 15 5 8 1004.4 1004.4 6.8
05/03:00am 25.6 29.6 23.8 90 1.2 NNW 9 11 5 6 1004.5 1004.5 1.4
05/02:30am 27.2 32.0 24.5 85 1.9 ENE 7 11 4 6 1004.7 1004.7 0.2
05/02:00am 27.0 30.7 24.6 87 1.7 E 13 17 7 9 1005.0 1005.0 0.2
05/01:30am 26.5 30.4 24.2 87 1.6 ESE 11 13 6 7 1005.0 1005.0 0.2
05/01:00am 26.6 31.2 24.1 86 1.7 SE 7 11 4 6 1005.7 1005.7 0.2
05/12:30am 26.8 31.7 24.3 86 1.7 SSE 6 15 3 8 1006.0 1006.0 0.2
05/12:00am 27.0 30.2 24.3 85 1.9 S 15 20 8 11 1006.2 1006.2 0.2
 
Date/Time
CST
Temp
°C
App
Temp
°C
Dew
Point
°C
Rel
Hum
%
Delta-T
°C
Wind Press
QNH
hPa
Press
MSL
hPa
Rain since
9am
mm
Dir  Spd
km/h
Gust
km/h
Spd
kts
Gust
kts
04/11:30pm 27.3 30.5 24.4 84 2.0 S 15 19 8 10 1006.3 1006.3 0.2
04/11:00pm 27.7 31.8 24.5 83 2.2 SSW 11 13 6 7 1006.6 1006.6 0.2
04/10:30pm 28.3 31.2 24.5 80 2.6 W 17 20 9 11 1006.8 1006.8 0.2
04/10:00pm 28.5 31.1 24.9 81 2.5 WNW 20 24 11 13 1006.7 1006.7 0.2
04/09:30pm 28.5 31.2 25.1 82 2.4 NW 20 24 11 13 1006.4 1006.4 0.2
04/09:00pm 28.3 29.9 24.5 80 2.6 NW 24 26 13 14 1006.5 1006.5 0.2
04/08:30pm 28.4 30.6 24.8 81 2.5 NW 22 24 12 13 1006.4 1006.4 0.2
04/08:00pm 28.4 30.2 25.4 84 2.1 NW 26 30 14 16 1006.1 1006.1 0.2
04/07:30pm 28.4 30.0 25.2 83 2.3 WNW 26 32 14 17 1005.8 1005.8 0.2
04/07:00pm 29.0 30.7 24.6 77 3.1 WNW 24 30 13 16 1005.2 1005.2 0.2
04/06:30pm 28.8 30.5 24.1 76 3.3 NW 22 28 12 15 1004.6 1004.6 0.2
04/06:00pm 29.2 31.5 25.0 78 3.0 NW 22 26 12 14 1004.1 1004.1 0.2
04/05:30pm 29.2 31.7 24.5 76 3.3 NW 19 22 10 12 1003.6 1003.6 0.2
04/05:00pm 29.7 31.7 24.6 74 3.6 NW 22 26 12 14 1003.3 1003.3 0.2
04/04:30pm 29.8 32.1 24.4 73 3.8 NW 20 24 11 13 1003.3 1003.3 0.2
04/04:00pm 29.9 32.6 24.8 74 3.6 NW 19 22 10 12 1003.4 1003.4 0.2
04/03:30pm 29.6 32.1 24.5 74 3.6 NW 19 20 10 11 1003.4 1003.4 0.2
04/03:00pm 30.2 33.3 24.8 73 3.8 WNW 17 20 9 11 1003.6 1003.6 0.2
04/02:30pm 30.7 33.6 24.4 69 4.4 WNW 17 20 9 11 1004.1 1004.1 0.2
04/02:00pm 30.6 35.3 25.0 72 3.9 WNW 9 11 5 6 1004.5 1004.5 0.2
04/01:30pm 30.3 34.6 24.9 73 3.8 WNW 11 15 6 8 1004.6 1004.6 0.2
04/01:00pm 30.4 35.5 25.5 75 3.5 W 9 11 5 6 1005.0 1005.0 0.2
04/12:30pm 30.5 35.0 24.6 70 4.1 WSW 9 13 5 7 1005.5 1005.5 0.2
04/12:00pm 30.0 34.1 24.6 73 3.8 WSW 11 13 6 7 1005.9 1005.9 0.2
04/11:30am 29.2 32.9 23.9 73 3.7 WSW 11 15 6 8 1006.2 1006.2 0.2
04/11:00am 29.6 33.4 24.7 75 3.4 WSW 13 17 7 9 1006.5 1006.5 0.0
04/10:30am 29.0 31.6 23.9 74 3.5 SW 17 19 9 10 1006.7 1006.7 0.0
04/10:00am 29.1 32.3 24.9 78 2.9 SW 17 20 9 11 1006.9 1006.9 0.0
04/09:30am 28.9 32.4 24.9 79 2.8 SW 15 20 8 11 1006.8 1006.8 0.0
04/09:00am 28.5 31.0 24.7 80 2.7 WSW 20 24 11 13 1006.5 1006.5 42.4
04/08:30am 28.3 31.0 24.7 81 2.5 W 19 24 10 13 1006.2 1006.2 42.4
04/08:00am 28.0 29.7 24.6 82 2.4 WSW 24 30 13 16 1005.8 1005.8 42.4
04/07:30am 27.9 29.5 24.5 82 2.4 WSW 24 30 13 16 1005.4 1005.4 42.4
04/07:00am 27.7 28.5 24.5 83 2.2 W 28 35 15 19 1005.1 1005.1 42.4
04/06:30am 27.7 26.8 24.5 83 2.2 W 37 43 20 23 1004.8 1004.8 42.4
04/06:00am 28.2 26.3 25.0 83 2.2 WNW 44 52 24 28 1004.5 1004.5 42.4
04/05:30am 27.9 25.9 24.5 82 2.4 W 43 50 23 27 1004.2 1004.2 42.4
04/05:00am 28.4 27.8 25.6 85 2.0 WNW 39 46 21 25 1004.5 1004.5 42.4
04/04:30am 27.6 29.5 25.0 86 1.8 WNW 24 30 13 16 1004.6 1004.6 42.4
04/04:00am 25.9 26.2 23.6 87 1.6 W 28 37 15 20 1004.6 1004.6 42.4
04/03:30am 25.8 25.4 23.7 88 1.4 WSW 32 43 17 23 1004.3 1004.3 40.0
04/03:14am 26.6 24.0 23.9 85 1.9 W 44 61 24 33 1004.2 1004.2 39.8
04/03:11am 27.3 24.8 24.6 85 1.9 WNW 46 61 25 33 1004.2 1004.2 39.8
04/03:00am 28.2 27.9 26.0 88 1.6 WNW 39 46 21 25 1003.8 1003.8 39.8
04/02:30am 28.6 29.3 25.8 85 2.0 WNW 33 43 18 23 1004.2 1004.2 39.8
04/02:00am 28.4 28.5 25.4 84 2.1 WNW 35 44 19 24 1004.6 1004.6 39.8
04/01:30am 28.5 28.4 25.7 85 2.0 WNW 37 43 20 23 1004.7 1004.7 39.8
04/01:00am 29.0 29.9 25.8 83 2.3 W 32 39 17 21 1005.0 1005.0 39.8
04/12:30am 28.4 31.3 25.4 84 2.1 WNW 20 32 11 17 1005.4 1005.4 39.8
04/12:00am 27.6 30.8 24.4 83 2.2 NW 15 17 8 9 1005.8 1005.8 39.8
 
Date/Time
CST
Temp
°C
App
Temp
°C
Dew
Point
°C
Rel
Hum
%
Delta-T
°C
Wind Press
QNH
hPa
Press
MSL
hPa
Rain since
9am
mm
Dir  Spd
km/h
Gust
km/h
Spd
kts
Gust
kts
03/11:30pm 27.0 30.6 23.7 82 2.3 NNW 11 13 6 7 1006.1 1006.1 39.8
03/11:00pm 26.4 30.7 23.7 85 1.8 NNW 7 11 4 6 1006.4 1006.4 39.8
03/10:30pm 25.6 29.6 23.8 90 1.2 NW 9 13 5 7 1006.3 1006.3 39.8
03/10:00pm 24.7 28.8 23.3 92 0.9 W 7 11 4 6 1006.2 1006.2 39.6

Other formats

Comma delimited format used in spreadsheet applications
http://www.bom.gov.au/fwo/IDD60801/IDD60801.94135.axf

JavaScript Object Notation format (JSON) in row-major order
http://www.bom.gov.au/fwo/IDD60801/IDD60801.94135.json

Data quality

Most of these data are generated automatically and are frequently updated. Quality checks on data are not normally performed. It is possible for incorrect values to appear. Refer to information at About Latest Weather Observations and please check the disclaimer before using these data.